createdAt,value
2022-08-08T00:01:00.494Z,3.37
2022-08-08T00:03:42.391Z,3.07
2022-08-08T00:06:28.301Z,3.20
2022-08-08T00:09:07.956Z,2.70
2022-08-08T00:11:46.668Z,2.57
2022-08-08T00:14:54.817Z,2.47
2022-08-08T00:17:58.402Z,2.60
2022-08-08T00:20:15.777Z,2.30
2022-08-08T00:22:49.671Z,2.57
2022-08-08T00:25:22.103Z,2.20
2022-08-08T00:27:52.292Z,2.43
2022-08-08T00:30:20.728Z,2.57
2022-08-08T00:32:53.045Z,2.80
2022-08-08T00:35:28.295Z,2.73
2022-08-08T00:38:04.329Z,2.77
2022-08-08T00:41:07.896Z,2.40
2022-08-08T00:44:12.550Z,2.50
2022-08-08T00:47:14.221Z,2.40
2022-08-08T00:50:12.083Z,2.40
2022-08-08T00:52:51.270Z,2.93
2022-08-08T00:55:59.629Z,2.40
2022-08-08T00:59:14.902Z,2.40
2022-08-08T01:02:01.768Z,2.83
2022-08-08T01:05:41.815Z,2.60
2022-08-08T01:08:28.828Z,2.70
2022-08-08T01:11:24.244Z,3.00
2022-08-08T01:14:53.314Z,3.00
2022-08-08T01:17:52.161Z,2.67
2022-08-08T01:20:34.966Z,3.00
2022-08-08T01:24:06.644Z,3.10
2022-08-08T01:27:21.350Z,2.83
2022-08-08T01:30:36.398Z,3.13
2022-08-08T01:33:54.149Z,2.63
2022-08-08T01:37:02.254Z,3.00
2022-08-08T01:39:45.917Z,2.57
2022-08-08T01:42:19.756Z,3.03
2022-08-08T01:45:17.484Z,3.10
2022-08-08T01:48:23.614Z,3.00
2022-08-08T01:51:32.174Z,3.03
2022-08-08T01:55:45.007Z,3.10
2022-08-08T01:57:05.681Z,2.97
2022-08-08T02:00:02.196Z,2.97
2022-08-08T02:02:41.438Z,2.67
2022-08-08T02:05:18.654Z,2.93
2022-08-08T02:08:01.748Z,2.80
2022-08-08T02:10:45.185Z,2.77
2022-08-08T02:13:54.696Z,2.80
2022-08-08T02:16:21.097Z,2.70
2022-08-08T02:18:58.902Z,2.50
2022-08-08T02:21:48.216Z,2.40
2022-08-08T02:24:20.099Z,2.70
2022-08-08T02:26:57.964Z,2.53
2022-08-08T02:29:46.769Z,2.17
2022-08-08T02:32:37.253Z,2.40
2022-08-08T02:36:03.433Z,2.87
2022-08-08T02:39:01.045Z,2.33
2022-08-08T02:42:05.806Z,2.40
2022-08-08T02:45:18.631Z,2.00
2022-08-08T02:48:25.914Z,2.23
2022-08-08T02:51:55.005Z,2.17
2022-08-08T02:54:50.149Z,2.43
2022-08-08T02:57:53.922Z,2.10
2022-08-08T03:00:43.209Z,2.70
2022-08-08T03:05:02.470Z,2.93
2022-08-08T03:07:26.353Z,2.50
2022-08-08T03:10:37.837Z,2.70
2022-08-08T03:15:57.494Z,2.83
2022-08-08T03:16:35.333Z,2.77
2022-08-08T03:19:24.628Z,2.33
2022-08-08T03:21:58.809Z,2.60
2022-08-08T03:24:29.741Z,2.57
2022-08-08T03:27:00.129Z,2.50
2022-08-08T03:29:53.589Z,2.60
2022-08-08T03:32:41.584Z,2.37
2022-08-08T03:35:11.456Z,2.73
2022-08-08T03:38:53.020Z,2.47
2022-08-08T03:40:32.083Z,2.33
2022-08-08T03:43:18.037Z,2.70
2022-08-08T03:46:05.124Z,2.70
2022-08-08T03:49:54.962Z,3.00
2022-08-08T03:51:40.198Z,2.77
2022-08-08T03:54:15.741Z,2.97
2022-08-08T03:58:30.523Z,2.77
2022-08-08T04:00:02.533Z,2.70
2022-08-08T04:02:47.732Z,2.50
2022-08-08T04:05:27.368Z,2.47
2022-08-08T04:07:58.036Z,2.60
2022-08-08T04:10:31.922Z,2.57
2022-08-08T04:13:17.369Z,2.13
2022-08-08T04:15:55.000Z,2.80
2022-08-08T04:18:32.531Z,2.60
2022-08-08T04:21:01.060Z,2.53
2022-08-08T04:24:05.781Z,2.70
2022-08-08T04:26:21.495Z,2.30
2022-08-08T04:28:55.614Z,2.43
2022-08-08T04:31:30.600Z,2.83
2022-08-08T04:34:14.345Z,2.30
2022-08-08T04:36:46.779Z,2.33
2022-08-08T04:40:03.545Z,2.20
2022-08-08T04:42:03.333Z,2.20
2022-08-08T04:44:33.813Z,2.80
2022-08-08T04:47:02.320Z,2.07
2022-08-08T04:50:00.489Z,1.90
2022-08-08T04:52:18.838Z,2.17
2022-08-08T04:54:53.674Z,1.80
2022-08-08T04:57:21.884Z,1.93
2022-08-08T04:59:51.474Z,2.07
2022-08-08T05:02:28.369Z,2.17
2022-08-08T05:04:59.937Z,2.00
2022-08-08T05:07:38.061Z,1.97
2022-08-08T05:10:12.883Z,2.07
2022-08-08T05:12:53.660Z,1.90
2022-08-08T05:16:47.592Z,2.00
2022-08-08T05:18:19.342Z,2.10
2022-08-08T05:20:52.146Z,2.30
2022-08-08T05:23:21.770Z,2.10
2022-08-08T05:25:51.552Z,2.27
2022-08-08T05:28:48.133Z,2.10
2022-08-08T05:32:02.226Z,2.00
2022-08-08T05:34:00.413Z,1.83
2022-08-08T05:36:30.006Z,1.97
2022-08-08T05:38:58.824Z,1.80
2022-08-08T05:41:27.986Z,2.13
2022-08-08T05:44:03.804Z,2.20
2022-08-08T05:46:34.265Z,1.77
2022-08-08T05:49:02.427Z,2.40
2022-08-08T05:51:48.132Z,1.93
2022-08-08T05:54:28.660Z,2.37
2022-08-08T05:57:06.675Z,1.87
2022-08-08T05:59:59.792Z,1.73
2022-08-08T06:02:43.519Z,2.10
2022-08-08T06:05:24.505Z,1.87
2022-08-08T06:08:02.401Z,2.10
2022-08-08T06:10:38.435Z,2.13
2022-08-08T06:13:07.538Z,1.73
2022-08-08T06:15:50.549Z,1.80
2022-08-08T06:18:24.022Z,1.73
2022-08-08T06:20:57.184Z,2.00
2022-08-08T06:23:48.449Z,2.30
2022-08-08T06:26:43.767Z,1.90
2022-08-08T06:29:26.852Z,2.17
2022-08-08T06:32:10.860Z,1.57
2022-08-08T06:34:56.417Z,1.67
2022-08-08T06:37:37.156Z,2.03
2022-08-08T06:40:15.992Z,2.13
2022-08-08T06:42:53.723Z,1.70
2022-08-08T06:45:23.166Z,1.80
2022-08-08T06:47:58.169Z,1.57
2022-08-08T06:50:33.883Z,1.90
2022-08-08T06:53:14.299Z,2.17
2022-08-08T06:55:53.511Z,1.67
2022-08-08T06:58:33.626Z,1.60
2022-08-08T07:01:52.408Z,1.67
2022-08-08T07:04:37.929Z,1.70
2022-08-08T07:06:45.576Z,1.60
2022-08-08T07:09:17.899Z,1.90
2022-08-08T07:11:51.597Z,1.80
2022-08-08T07:14:23.230Z,1.60
2022-08-08T07:17:00.793Z,2.03
2022-08-08T07:19:35.639Z,1.60
2022-08-08T07:22:12.022Z,1.40
2022-08-08T07:24:52.967Z,1.93
2022-08-08T07:27:35.014Z,1.50
2022-08-08T07:30:19.702Z,2.00
2022-08-08T07:32:54.586Z,1.90
2022-08-08T07:35:27.614Z,1.80
2022-08-08T07:38:09.800Z,1.50
2022-08-08T07:40:46.519Z,1.30
2022-08-08T07:43:15.757Z,1.20
2022-08-08T07:46:05.048Z,1.30
2022-08-08T07:48:34.700Z,1.30
2022-08-08T07:51:04.603Z,1.40
2022-08-08T07:54:00.896Z,1.40
2022-08-08T07:56:35.545Z,1.17
2022-08-08T07:59:06.012Z,1.40
2022-08-08T08:02:33.117Z,1.20
2022-08-08T08:04:29.146Z,1.27
2022-08-08T08:06:59.861Z,1.40
2022-08-08T08:09:35.747Z,1.50
2022-08-08T08:12:04.605Z,1.77
2022-08-08T08:14:37.795Z,1.20
2022-08-08T08:17:08.519Z,1.23
2022-08-08T08:19:45.440Z,1.30
2022-08-08T08:22:16.137Z,1.43
2022-08-08T08:25:07.515Z,1.40
2022-08-08T08:27:36.925Z,1.43
2022-08-08T08:30:07.245Z,1.40
2022-08-08T08:32:41.200Z,1.37
2022-08-08T08:35:29.517Z,1.30
2022-08-08T08:38:17.284Z,1.30
2022-08-08T08:40:48.590Z,1.83
2022-08-08T08:43:19.771Z,1.57
2022-08-08T08:45:49.376Z,1.50
2022-08-08T08:48:25.400Z,1.47
2022-08-08T08:50:54.597Z,1.27
2022-08-08T08:53:28.016Z,1.27
2022-08-08T08:56:13.247Z,1.50
2022-08-08T08:58:49.929Z,1.30
2022-08-08T09:01:19.721Z,1.40
2022-08-08T09:03:50.970Z,1.53
2022-08-08T09:06:28.839Z,1.20
2022-08-08T09:09:26.649Z,1.37
2022-08-08T09:12:01.562Z,1.60
2022-08-08T09:14:34.697Z,2.40
2022-08-08T09:17:11.553Z,1.33
2022-08-08T09:21:58.543Z,1.50
2022-08-08T09:22:31.456Z,1.50
2022-08-08T09:24:59.728Z,1.47
2022-08-08T09:27:56.215Z,1.40
2022-08-08T09:30:20.197Z,1.40
2022-08-08T09:33:54.323Z,1.50
2022-08-08T09:35:48.684Z,1.43
2022-08-08T09:38:31.842Z,1.53
2022-08-08T09:41:03.903Z,1.70
2022-08-08T09:43:41.226Z,1.67
2022-08-08T09:46:25.814Z,1.37
2022-08-08T09:49:18.564Z,1.60
2022-08-08T09:52:06.743Z,1.40
2022-08-08T09:54:40.348Z,1.70
2022-08-08T09:57:16.146Z,1.30
2022-08-08T10:00:02.508Z,1.40
2022-08-08T10:02:36.714Z,1.33
2022-08-08T10:05:07.134Z,1.60
2022-08-08T10:08:01.165Z,1.60
2022-08-08T10:10:31.837Z,1.60
2022-08-08T10:13:14.386Z,1.60
2022-08-08T10:15:59.200Z,1.50
2022-08-08T10:18:30.689Z,1.53
2022-08-08T10:21:03.665Z,1.38
2022-08-08T10:23:56.039Z,1.60
2022-08-08T10:26:52.328Z,1.60
2022-08-08T10:29:22.839Z,1.77
2022-08-08T10:32:15.407Z,1.60
2022-08-08T10:34:51.218Z,1.30
2022-08-08T10:37:28.417Z,1.90
2022-08-08T10:39:58.952Z,1.58
2022-08-08T10:42:34.249Z,1.42
2022-08-08T10:45:09.079Z,1.75
2022-08-08T10:47:43.626Z,1.98
2022-08-08T10:50:16.699Z,1.40
2022-08-08T10:52:45.811Z,1.35
2022-08-08T10:55:39.062Z,1.58
2022-08-08T10:58:05.816Z,1.52
2022-08-08T11:00:40.745Z,1.33
2022-08-08T11:03:18.780Z,1.40
2022-08-08T11:06:05.574Z,1.50
2022-08-08T11:08:50.057Z,1.67
2022-08-08T11:11:32.675Z,1.50
2022-08-08T11:14:12.356Z,1.40
2022-08-08T11:16:46.847Z,1.50
2022-08-08T11:19:17.063Z,1.40
2022-08-08T11:21:55.604Z,1.67
2022-08-08T11:24:24.948Z,1.80
2022-08-08T11:26:57.017Z,1.92
2022-08-08T11:29:41.618Z,1.67
2022-08-08T11:32:14.425Z,2.03
2022-08-08T11:38:36.542Z,1.98
2022-08-08T11:40:25.784Z,1.60
2022-08-08T11:42:55.029Z,1.75
2022-08-08T11:45:23.905Z,1.70
2022-08-08T11:48:04.557Z,1.50
2022-08-08T11:50:34.904Z,1.50
2022-08-08T11:53:05.729Z,1.80
2022-08-08T11:55:36.702Z,1.80
2022-08-08T11:58:14.171Z,1.80
2022-08-08T12:00:45.669Z,1.70
2022-08-08T12:03:20.748Z,1.80
2022-08-08T12:05:51.488Z,2.00
2022-08-08T12:08:31.074Z,1.90
2022-08-08T12:11:01.900Z,1.63
2022-08-08T12:13:38.453Z,1.58
2022-08-08T12:16:20.463Z,1.70
2022-08-08T12:19:00.295Z,1.60
2022-08-08T12:22:00.684Z,2.03
2022-08-08T12:24:19.923Z,1.67
2022-08-08T12:26:50.117Z,1.92
2022-08-08T12:29:40.149Z,1.77
2022-08-08T12:32:13.600Z,1.73
2022-08-08T12:34:53.846Z,1.60
2022-08-08T12:37:40.873Z,1.83
2022-08-08T12:40:23.822Z,1.73
2022-08-08T12:42:53.265Z,1.95
2022-08-08T12:45:57.732Z,1.92
2022-08-08T12:48:37.378Z,1.92
2022-08-08T12:51:10.761Z,2.22
2022-08-08T12:53:58.896Z,1.92
2022-08-08T12:56:34.353Z,2.45
2022-08-08T12:59:02.650Z,2.15
2022-08-08T13:01:37.829Z,2.58
2022-08-08T13:04:18.565Z,2.10
2022-08-08T13:07:00.920Z,2.20
2022-08-08T13:09:43.353Z,2.38
2022-08-08T13:12:30.558Z,2.30
2022-08-08T13:14:59.153Z,2.03
2022-08-08T13:17:54.374Z,2.05
2022-08-08T13:20:20.170Z,2.08
2022-08-08T13:22:48.639Z,2.38
2022-08-08T13:25:21.210Z,2.33
2022-08-08T13:27:54.569Z,2.10
2022-08-08T13:30:26.635Z,2.10
2022-08-08T13:32:56.733Z,2.10
2022-08-08T13:35:29.563Z,2.00
2022-08-08T13:38:08.391Z,2.15
2022-08-08T13:40:45.003Z,2.40
2022-08-08T13:43:16.322Z,2.00
2022-08-08T13:45:47.413Z,2.08
2022-08-08T13:48:16.924Z,2.05
2022-08-08T13:50:52.382Z,2.03
2022-08-08T13:53:28.123Z,1.70
2022-08-08T13:56:05.870Z,1.80
2022-08-08T13:58:35.016Z,1.90
2022-08-08T14:01:13.765Z,1.80
2022-08-08T14:03:54.951Z,1.80
2022-08-08T14:06:34.212Z,1.95
2022-08-08T14:09:24.880Z,1.77
2022-08-08T14:11:54.581Z,1.88
2022-08-08T14:14:26.177Z,2.00
2022-08-08T14:16:55.720Z,1.83
2022-08-08T14:19:57.190Z,1.73
2022-08-08T14:22:23.264Z,1.52
2022-08-08T14:24:54.206Z,1.75
2022-08-08T14:27:28.838Z,1.55
2022-08-08T14:30:18.064Z,1.83
2022-08-08T14:32:47.649Z,1.63
2022-08-08T14:35:22.576Z,1.67
2022-08-08T14:37:59.679Z,1.98
2022-08-08T14:40:31.542Z,2.00
2022-08-08T14:43:01.484Z,1.67
2022-08-08T14:45:46.894Z,1.60
2022-08-08T14:48:34.030Z,1.80
2022-08-08T14:51:06.534Z,1.73
2022-08-08T14:53:37.363Z,2.05
2022-08-08T14:56:25.274Z,1.60
2022-08-08T14:58:55.119Z,1.33
2022-08-08T15:01:37.316Z,2.30
2022-08-08T15:04:10.372Z,1.52
2022-08-08T15:06:39.154Z,1.52
2022-08-08T15:09:11.273Z,1.60
2022-08-08T15:11:46.146Z,1.60
2022-08-08T15:14:16.322Z,1.80
2022-08-08T15:16:44.803Z,1.60
2022-08-08T15:19:14.886Z,1.60
2022-08-08T15:21:44.833Z,1.60
2022-08-08T15:24:16.108Z,1.95
2022-08-08T15:26:52.501Z,1.85
2022-08-08T15:29:24.222Z,1.75
2022-08-08T15:32:03.492Z,1.73
2022-08-08T15:34:40.884Z,1.40
2022-08-08T15:37:09.173Z,1.45
2022-08-08T15:39:39.646Z,1.60
2022-08-08T15:42:10.143Z,1.70
2022-08-08T15:44:40.302Z,1.70
2022-08-08T15:47:15.944Z,1.60
2022-08-08T15:49:48.403Z,2.42
2022-08-08T15:52:17.603Z,1.50
2022-08-08T15:54:51.429Z,1.67
2022-08-08T15:57:20.676Z,1.45
2022-08-08T16:00:06.808Z,1.88
2022-08-08T16:02:44.551Z,1.65
2022-08-08T16:05:19.795Z,2.00
2022-08-08T16:07:52.005Z,1.48
2022-08-08T16:13:15.849Z,1.67
2022-08-08T16:13:29.846Z,1.75
2022-08-08T16:16:09.086Z,1.65
2022-08-08T16:18:41.688Z,1.70
2022-08-08T16:21:25.764Z,1.60
2022-08-08T16:23:55.840Z,1.85
2022-08-08T16:26:33.942Z,1.80
2022-08-08T16:29:03.323Z,1.50
2022-08-08T16:31:40.418Z,1.80
2022-08-08T16:34:09.021Z,1.80
2022-08-08T16:36:37.902Z,1.55
2022-08-08T16:39:09.812Z,1.52
2022-08-08T16:41:54.275Z,1.60
2022-08-08T16:44:33.642Z,1.65
2022-08-08T16:47:21.937Z,1.98
2022-08-08T16:50:01.263Z,1.80
2022-08-08T16:55:03.017Z,1.90
2022-08-08T16:55:42.616Z,1.98
2022-08-08T16:58:16.640Z,1.95
2022-08-08T17:00:49.252Z,1.73
2022-08-08T17:03:24.989Z,1.60
2022-08-08T17:06:36.401Z,1.88
2022-08-08T17:08:57.656Z,1.75
2022-08-08T17:11:28.368Z,1.73
2022-08-08T17:14:11.674Z,1.90
2022-08-08T17:16:51.940Z,1.70
2022-08-08T17:19:29.046Z,1.92
2022-08-08T17:22:01.036Z,1.92
2022-08-08T17:24:30.784Z,1.83
2022-08-08T17:26:59.412Z,1.95
2022-08-08T17:29:28.011Z,2.00
2022-08-08T17:31:57.457Z,2.17
2022-08-08T17:34:37.696Z,1.70
2022-08-08T17:37:16.008Z,2.22
2022-08-08T17:40:12.320Z,2.20
2022-08-08T17:42:35.697Z,2.92
2022-08-08T17:45:04.214Z,2.00
2022-08-08T17:47:40.155Z,1.98
2022-08-08T17:50:11.069Z,1.92
2022-08-08T17:52:43.357Z,2.10
2022-08-08T17:56:07.047Z,1.90
2022-08-08T17:58:04.310Z,1.65
2022-08-08T18:00:32.581Z,2.08
2022-08-08T18:03:13.133Z,1.98
2022-08-08T18:05:48.554Z,1.60
2022-08-08T18:08:37.839Z,2.00
2022-08-08T18:11:11.878Z,2.03
2022-08-08T18:13:44.439Z,2.00
2022-08-08T18:16:20.533Z,2.00
2022-08-08T18:18:53.844Z,2.40
2022-08-08T18:21:59.609Z,2.00
2022-08-08T18:24:18.944Z,1.83
2022-08-08T18:26:54.751Z,2.13
2022-08-08T18:29:33.363Z,2.10
2022-08-08T18:32:04.035Z,2.20
2022-08-08T18:34:33.598Z,2.10
2022-08-08T18:37:07.887Z,1.90
2022-08-08T18:39:37.129Z,1.88
2022-08-08T18:42:13.046Z,2.08
2022-08-08T18:44:42.514Z,1.88
2022-08-08T18:47:28.068Z,2.17
2022-08-08T18:50:02.600Z,2.33
2022-08-08T18:52:34.668Z,2.30
2022-08-08T18:55:10.079Z,2.47
2022-08-08T18:57:43.425Z,2.40
2022-08-08T19:00:16.933Z,2.22
2022-08-08T19:02:55.318Z,2.38
2022-08-08T19:05:32.422Z,2.30
2022-08-08T19:08:25.039Z,2.25
2022-08-08T19:10:57.143Z,1.80
2022-08-08T19:13:53.339Z,2.70
2022-08-08T19:16:18.431Z,2.97
2022-08-08T19:18:51.833Z,2.63
2022-08-08T19:21:30.305Z,2.77
2022-08-08T19:24:05.854Z,2.30
2022-08-08T19:26:37.455Z,2.27
2022-08-08T19:29:06.231Z,2.50
2022-08-08T19:31:35.012Z,2.80
2022-08-08T19:34:35.715Z,2.70
2022-08-08T19:36:55.074Z,2.20
2022-08-08T19:39:25.311Z,2.60
2022-08-08T19:41:59.204Z,2.47
2022-08-08T19:44:45.426Z,3.13
2022-08-08T19:47:24.652Z,2.55
2022-08-08T19:49:59.704Z,2.63
2022-08-08T19:52:35.059Z,2.43
2022-08-08T19:55:11.108Z,2.77
2022-08-08T19:57:41.336Z,2.93
2022-08-08T20:00:30.310Z,2.43
2022-08-08T20:03:00.736Z,2.60
2022-08-08T20:06:12.883Z,2.73
2022-08-08T20:08:37.433Z,2.60
2022-08-08T20:11:08.263Z,2.80
2022-08-08T20:14:32.241Z,2.43
2022-08-08T20:16:29.504Z,2.60
2022-08-08T20:18:57.930Z,3.00
2022-08-08T20:21:26.658Z,3.73
2022-08-08T20:24:00.276Z,3.53
2022-08-08T20:26:34.034Z,3.17
2022-08-08T20:29:02.953Z,3.70
2022-08-08T20:32:02.616Z,3.37
2022-08-08T20:34:30.411Z,3.73
2022-08-08T20:37:00.621Z,3.43
2022-08-08T20:39:38.989Z,3.77
2022-08-08T20:42:11.601Z,4.17
2022-08-08T20:44:39.928Z,4.30
2022-08-08T20:47:22.737Z,4.37
2022-08-08T20:49:54.495Z,4.43
2022-08-08T20:52:27.728Z,4.43
2022-08-08T20:54:56.256Z,4.17
2022-08-08T20:57:27.734Z,4.50
2022-08-08T20:59:56.351Z,4.60
2022-08-08T21:02:26.066Z,4.17
2022-08-08T21:05:00.488Z,4.30
2022-08-08T21:07:30.891Z,3.77
2022-08-08T21:10:16.589Z,3.80
2022-08-08T21:12:52.787Z,3.90
2022-08-08T21:16:06.484Z,3.90
2022-08-08T21:18:11.586Z,3.93
2022-08-08T21:20:41.882Z,3.70
2022-08-08T21:23:13.082Z,3.73
2022-08-08T21:25:48.985Z,3.47
2022-08-08T21:28:33.721Z,4.10
2022-08-08T21:31:22.353Z,3.00
2022-08-08T21:33:52.002Z,3.37
2022-08-08T21:36:21.534Z,3.33
2022-08-08T21:38:57.210Z,3.53
2022-08-08T21:41:28.997Z,4.17
2022-08-08T21:44:13.084Z,4.10
2022-08-08T21:48:08.235Z,3.77
2022-08-08T21:49:31.631Z,4.00
2022-08-08T21:54:30.897Z,3.53
2022-08-08T21:54:54.802Z,3.23
2022-08-08T21:57:43.050Z,3.70
2022-08-08T22:00:26.028Z,4.00
2022-08-08T22:02:54.686Z,4.20
2022-08-08T22:05:23.369Z,5.47
2022-08-08T22:07:51.735Z,4.10
2022-08-08T22:10:32.079Z,3.93
2022-08-08T22:13:18.353Z,5.57
2022-08-08T22:15:59.319Z,5.00
2022-08-08T22:18:29.657Z,5.23
2022-08-08T22:21:01.698Z,5.33
2022-08-08T22:23:41.081Z,3.93
2022-08-08T22:26:29.064Z,4.23
2022-08-08T22:29:04.930Z,3.93
2022-08-08T22:31:58.111Z,4.00
2022-08-08T22:34:31.950Z,3.97
2022-08-08T22:37:00.242Z,4.00
2022-08-08T22:39:46.197Z,4.30
2022-08-08T22:42:24.055Z,4.10
2022-08-08T22:44:59.744Z,3.97
2022-08-08T22:47:37.787Z,3.70
2022-08-08T22:50:09.655Z,3.63
2022-08-08T22:54:15.619Z,4.17
2022-08-08T22:55:57.792Z,3.57
2022-08-08T22:58:29.148Z,3.73
2022-08-08T23:01:00.208Z,4.10
2022-08-08T23:03:34.173Z,4.00
2022-08-08T23:06:18.403Z,3.47
2022-08-08T23:08:55.722Z,3.63
2022-08-08T23:11:31.161Z,3.30
2022-08-08T23:14:16.364Z,3.40
2022-08-08T23:16:48.208Z,3.37
2022-08-08T23:19:32.088Z,3.63
2022-08-08T23:22:01.805Z,3.53
2022-08-08T23:24:36.761Z,4.03
2022-08-08T23:27:09.770Z,3.90
2022-08-08T23:29:38.175Z,4.20
2022-08-08T23:32:07.081Z,3.77
2022-08-08T23:34:58.460Z,3.67
2022-08-08T23:37:26.742Z,3.87
2022-08-08T23:40:15.342Z,3.40
2022-08-08T23:42:45.098Z,3.87
2022-08-08T23:45:13.949Z,4.07
2022-08-08T23:49:00.080Z,3.87
2022-08-08T23:50:33.799Z,3.57
2022-08-08T23:53:05.128Z,3.37
2022-08-08T23:55:38.257Z,3.83
2022-08-08T23:58:37.751Z,3.20
